This is the latest recevied weather packets stored in our database for station/object K1BES. If no packets are shown the sender has not sent any weather packets the latest 10 day(s).
| Time | Temp. | Humidity | Pressure | Rain* | Wind** | Luminosity | Snow |
|---|---|---|---|---|---|---|---|
| 1788278038 | 32.22° C | 69% | 1019.2 hPa | 0 mm | - | 838 W/m² | - |
| 1788277735 | 31.67° C | 71% | 1019.2 hPa | 0 mm | - | 988 W/m² | - |
| 1788277434 | 31.11° C | 74% | 1019.3 hPa | 0 mm | - | 961 W/m² | - |
| 1788277129 | 31.67° C | 73% | 1019.4 hPa | 0 mm | - | 308 W/m² | - |
| 1788276823 | 31.67° C | 73% | 1019.2 hPa | 0 mm | - | 377 W/m² | - |
| 1788276522 | 30.56° C | 76% | 1019.2 hPa | 0 mm | - | 1071 W/m² | - |
| 1788276222 | 30.56° C | 76% | 1019.2 hPa | 0 mm | - | 506 W/m² | - |
| 1788275918 | 30.56° C | 76% | 1019.2 hPa | 0 mm | - | 571 W/m² | - |
| 1788275612 | 30.56° C | 77% | 1019.1 hPa | 0 mm | - | 532 W/m² | - |
| 1788275311 | 30.56° C | 77% | 1019.2 hPa | 0 mm | - | 423 W/m² | - |
| 1788275010 | 30.56° C | 76% | 1018.9 hPa | 0 mm | - | 356 W/m² | - |
| 1788274707 | 30.56° C | 78% | 1019 hPa | 0 mm | - | 356 W/m² | - |
| 1788274407 | 30° C | 78% | 1019.1 hPa | 0 mm | - | 383 W/m² | - |
| 1788274102 | 30° C | 78% | 1019 hPa | 0 mm | - | 332 W/m² | - |
| 1788273798 | 30° C | 78% | 1018.9 hPa | 0 mm | - | 301 W/m² | - |
| 1788273493 | 30° C | 78% | 1019.2 hPa | 0 mm | - | 316 W/m² | - |
| 1788273190 | 30° C | 78% | 1018.8 hPa | 0 mm | - | 307 W/m² | - |
| 1788272886 | 30° C | 78% | 1019 hPa | 0 mm | - | 300 W/m² | - |
| 1788272584 | 30.56° C | 75% | 1018.9 hPa | 0 mm | - | 295 W/m² | - |
| 1788272280 | 31.11° C | 76% | 1018.8 hPa | 0 mm | - | 557 W/m² | - |
| 1788271975 | 30.56° C | 77% | 1018.8 hPa | 0 mm | - | 508 W/m² | - |
| 1788271674 | 30.56° C | 77% | 1018.8 hPa | 0 mm | - | 459 W/m² | - |
| 1788271372 | 31.11° C | 77% | 1019.1 hPa | 0 mm | - | 344 W/m² | - |
| 1788271068 | 31.11° C | 78% | 1018.9 hPa | 0 mm | - | 551 W/m² | - |
| 1788270767 | 30.56° C | 78% | 1018.8 hPa | 0 mm | - | 562 W/m² | - |
* Rain latest hour (hover to see other rain measurements)
** Current wind speed in m/s (hover to see current wind gust speed)